Time;durP1;ratioP1;P1;durP2;ratioP2;P2;SDS_P1;SDS_P2;PMS_P1;PMS_P2;Temp;Humidity;BMP_temperature;BMP_pressure;BME280_temperature;BME280_humidity;BME280_pressure;Samples;Min_cycle;Max_cycle;Signal;HPM_P1;HPM_P2
2021/04/26 00:00:18;;;;;;;21.65;12.80;;;;;;;7.85;73.80;100709.84;5056081;28;20052;-70
2021/04/26 00:02:44;;;;;;;26.58;15.30;;;;;;;7.91;73.53;100705.03;5055709;28;20024;-72
2021/04/26 00:05:12;;;;;;;19.67;12.45;;;;;;;7.47;73.91;100677.03;5053813;28;20383;-72
2021/04/26 00:07:37;;;;;;;15.55;10.00;;;;;;;7.41;75.01;100718.66;5034981;28;20033;-70
2021/04/26 00:10:03;;;;;;;31.10;15.85;;;;;;;7.42;75.20;100694.75;5053566;28;20413;-70
2021/04/26 00:12:29;;;;;;;23.05;12.40;;;;;;;6.87;74.46;100597.69;5018426;28;20041;-75
2021/04/26 00:14:54;;;;;;;72.78;33.20;;;;;;;7.68;74.93;100718.38;5053185;28;20407;-69
2021/04/26 00:17:20;;;;;;;17.83;10.52;;;;;;;7.33;75.72;100730.19;5052311;28;20100;-73
2021/04/26 00:19:46;;;;;;;18.48;11.70;;;;;;;7.23;76.00;100729.72;5053754;28;20028;-73
2021/04/26 00:22:11;;;;;;;59.95;31.13;;;;;;;6.60;76.02;100610.75;5052628;28;20098;-72
2021/04/26 00:24:38;;;;;;;37.20;18.52;;;;;;;7.52;75.21;100730.41;5052624;28;20387;-69
2021/04/26 00:27:04;;;;;;;17.17;11.43;;;;;;;7.42;74.98;100738.41;5052347;28;20140;-72
2021/04/26 00:29:30;;;;;;;19.08;14.02;;;;;;;7.09;75.39;100704.94;5052638;28;20116;-70
2021/04/26 00:31:55;;;;;;;19.75;14.98;;;;;;;6.86;75.79;100678.91;5033434;28;20033;-71
2021/04/26 00:34:21;;;;;;;19.58;15.15;;;;;;;7.19;75.39;100724.31;5052690;28;20032;-72
2021/04/26 00:36:46;;;;;;;14.93;10.43;;;;;;;6.96;74.32;100654.63;5052613;28;20021;-71
2021/04/26 00:39:12;;;;;;;17.85;11.15;;;;;;;7.24;74.82;100738.28;5051889;28;20020;-70
2021/04/26 00:41:37;;;;;;;20.27;11.02;;;;;;;7.02;75.52;100734.53;5052000;28;20091;-72
2021/04/26 00:44:03;;;;;;;13.55;9.40;;;;;;;7.08;74.58;100728.88;5052704;28;20475;-70
2021/04/26 00:46:29;;;;;;;14.20;9.90;;;;;;;6.96;74.82;100744.47;5052145;28;20078;-71
2021/04/26 00:48:54;;;;;;;14.43;10.15;;;;;;;6.78;75.35;100734.06;5052483;28;20036;-71
2021/04/26 00:51:20;;;;;;;15.95;9.93;;;;;;;6.62;74.44;100676.75;5052652;28;20035;-72
2021/04/26 00:53:46;;;;;;;11.95;9.32;;;;;;;6.51;74.58;100697.47;5052174;28;20028;-72
2021/04/26 00:56:11;;;;;;;14.68;9.27;;;;;;;6.78;74.46;100736.66;5051931;28;20032;-72
2021/04/26 00:58:37;;;;;;;47.13;22.77;;;;;;;6.99;74.23;100743.75;5052564;28;20100;-74
2021/04/26 01:01:03;;;;;;;15.10;10.70;;;;;;;6.75;74.20;100749.28;5034038;28;20102;-73
2021/04/26 01:03:29;;;;;;;13.57;9.00;;;;;;;6.83;73.78;100760.88;5052755;28;20451;-71
2021/04/26 01:05:54;;;;;;;16.15;10.63;;;;;;;6.81;74.55;100762.47;5052685;28;20017;-73
2021/04/26 01:08:20;;;;;;;14.82;9.85;;;;;;;6.77;74.14;100755.41;5052408;28;20028;-73
2021/04/26 01:10:46;;;;;;;18.63;10.45;;;;;;;6.41;73.27;100689.25;5052299;28;20602;-70
2021/04/26 01:13:14;;;;;;;17.05;10.07;;;;;;;6.72;74.53;100759.38;5052451;28;20083;-69
2021/04/26 01:16:05;;;;;;;69.80;23.92;;;;;;;6.96;74.29;100754.75;5066956;28;20062;-69
2021/04/26 01:18:49;;;;;;;28.80;14.63;;;;;;;6.83;73.93;100760.88;5051324;28;20057;-71
2021/04/26 01:21:52;;;;;;;18.17;11.35;;;;;;;6.81;74.55;100759.88;5051722;28;20048;-70
2021/04/26 01:24:17;;;;;;;13.88;8.60;;;;;;;6.82;74.88;100768.47;5043929;28;20053;-69
2021/04/26 01:26:46;;;;;;;12.25;8.93;;;;;;;6.41;75.45;100758.47;5051055;28;20064;-68
2021/04/26 01:29:24;;;;;;;13.77;9.95;;;;;;;6.28;77.68;100756.88;5051887;28;20029;-71
2021/04/26 01:32:10;;;;;;;19.90;10.73;;;;;;;6.51;77.52;100749.66;5052127;28;20079;-70
2021/04/26 01:34:37;;;;;;;14.75;10.32;;;;;;;6.67;76.50;100736.03;5052226;28;20029;-71
2021/04/26 01:37:05;;;;;;;15.57;10.82;;;;;;;6.56;76.84;100755.91;5052013;28;20025;-70
2021/04/26 01:39:31;;;;;;;14.57;10.10;;;;;;;6.59;77.45;100748.41;5052049;28;20086;-70
2021/04/26 01:41:58;;;;;;;15.55;9.88;;;;;;;6.68;77.15;100724.06;5051554;28;20116;-70
2021/04/26 01:44:24;;;;;;;13.68;9.73;;;;;;;6.91;75.39;100735.63;5052105;28;20063;-71
2021/04/26 01:46:51;;;;;;;17.50;9.50;;;;;;;6.68;75.15;100750.63;5052294;28;20067;-71
2021/04/26 01:49:18;;;;;;;17.33;10.60;;;;;;;6.51;76.52;100711.16;5051699;28;20099;-70
2021/04/26 01:51:46;;;;;;;42.78;18.17;;;;;;;6.74;78.89;100756.09;5051605;28;20522;-70
2021/04/26 01:54:12;;;;;;;71.07;19.42;;;;;;;6.47;80.92;100748.56;5051412;28;20403;-70
2021/04/26 01:56:38;;;;;;;40.60;19.92;;;;;;;6.66;81.84;100746.22;5051876;28;20020;-70
2021/04/26 01:59:05;;;;;;;38.38;21.90;;;;;;;6.56;80.76;100709.75;5052062;28;20414;-70
2021/04/26 02:01:32;;;;;;;31.60;17.13;;;;;;;6.85;80.27;100736.16;5050957;28;20035;-71
2021/04/26 02:04:00;;;;;;;32.53;20.25;;;;;;;6.31;81.89;100689.53;5057611;28;20036;-72
2021/04/26 02:06:27;;;;;;;26.95;16.58;;;;;;;6.88;81.63;100750.84;5053205;28;20032;-71
2021/04/26 02:08:54;;;;;;;30.55;18.23;;;;;;;7.06;80.79;100757.00;5051174;28;20029;-71
2021/04/26 02:11:21;;;;;;;20.85;13.13;;;;;;;7.08;79.95;100744.28;5050871;28;20032;-70
2021/04/26 02:13:48;;;;;;;15.77;11.32;;;;;;;7.19;79.03;100755.13;5051249;28;20088;-71
2021/04/26 02:16:14;;;;;;;21.73;12.32;;;;;;;7.26;77.34;100729.00;5051146;28;20040;-71
2021/04/26 02:18:40;;;;;;;16.23;9.13;;;;;;;6.95;76.89;100674.31;5051522;28;20028;-71
2021/04/26 02:21:05;;;;;;;19.50;11.07;;;;;;;7.22;75.52;100717.66;5051505;28;20025;-71
2021/04/26 02:23:31;;;;;;;22.58;12.27;;;;;;;7.34;75.43;100738.00;5050563;28;20033;-72
2021/04/26 02:26:00;;;;;;;25.23;12.48;;;;;;;7.45;75.18;100733.44;5051237;28;20020;-71
2021/04/26 02:28:25;;;;;;;22.38;12.23;;;;;;;7.47;74.63;100713.84;5049396;28;20049;-71
2021/04/26 02:30:56;;;;;;;23.67;12.77;;;;;;;7.62;74.19;100718.94;5050118;28;20477;-71
2021/04/26 02:33:28;;;;;;;18.02;11.45;;;;;;;7.36;73.16;100658.47;5050076;28;20032;-72
2021/04/26 02:36:01;;;;;;;24.10;12.32;;;;;;;7.27;72.63;100654.59;5039106;28;20055;-71
2021/04/26 02:38:30;;;;;;;21.65;12.52;;;;;;;7.01;73.56;100711.38;5051383;28;20033;-71
2021/04/26 02:41:07;;;;;;;23.77;14.10;;;;;;;7.11;74.14;100744.44;5050953;28;20021;-71
2021/04/26 02:43:39;;;;;;;26.00;15.20;;;;;;;6.74;75.40;100743.28;5050944;28;20029;-71
2021/04/26 02:46:06;;;;;;;24.27;14.40;;;;;;;6.52;76.43;100719.72;5051023;28;20028;-72
2021/04/26 02:48:32;;;;;;;31.77;14.05;;;;;;;6.60;76.29;100724.53;5051139;28;20021;-72
2021/04/26 02:51:00;;;;;;;19.98;10.10;;;;;;;6.46;73.87;100741.69;5050944;28;20028;-70
2021/04/26 02:53:30;;;;;;;21.17;10.93;;;;;;;6.03;74.71;100720.34;5050073;28;20083;-71
2021/04/26 02:56:08;;;;;;;25.15;10.82;;;;;;;5.50;75.55;100665.97;5050976;28;20035;-71
2021/04/26 02:58:35;;;;;;;32.08;11.88;;;;;;;5.84;76.72;100744.81;5050983;28;20074;-71
2021/04/26 03:01:05;;;;;;;25.73;11.50;;;;;;;5.94;76.48;100748.84;5050783;28;20025;-70
2021/04/26 03:03:32;;;;;;;23.58;11.88;;;;;;;6.03;75.82;100752.00;5050870;28;20035;-72
2021/04/26 03:05:59;;;;;;;24.13;10.98;;;;;;;5.96;75.21;100722.50;5050671;28;20087;-71
2021/04/26 03:08:25;;;;;;;30.83;11.77;;;;;;;5.93;75.65;100749.63;5050782;28;20491;-71
2021/04/26 03:10:51;;;;;;;17.33;10.63;;;;;;;5.94;75.16;100734.34;5051082;28;20104;-71
2021/04/26 03:13:17;;;;;;;24.98;11.88;;;;;;;5.96;75.13;100740.44;5050932;28;20116;-71
2021/04/26 03:15:43;;;;;;;27.65;10.98;;;;;;;5.72;75.90;100754.31;5050624;28;20040;-70
2021/04/26 03:18:13;;;;;;;26.60;12.18;;;;;;;5.76;76.87;100757.19;5050680;28;20025;-71
2021/04/26 03:20:39;;;;;;;28.60;13.57;;;;;;;5.62;77.56;100710.25;5050996;28;20037;-71
2021/04/26 03:23:04;;;;;;;44.10;15.07;;;;;;;5.75;77.73;100713.53;5050442;28;20074;-70
2021/04/26 03:25:30;;;;;;;34.38;13.07;;;;;;;5.96;77.42;100747.25;5050776;28;20121;-71
2021/04/26 03:27:56;;;;;;;58.60;15.52;;;;;;;5.78;78.51;100760.72;5050805;28;20181;-71
2021/04/26 03:30:24;;;;;;;60.35;14.85;;;;;;;5.82;78.63;100752.44;5048267;28;20040;-71
2021/04/26 03:32:51;;;;;;;98.17;15.47;;;;;;;5.83;78.86;100753.31;5051039;28;20033;-71
2021/04/26 03:35:18;;;;;;;80.13;16.38;;;;;;;5.47;79.07;100683.69;5050739;28;20036;-69
2021/04/26 03:37:46;;;;;;;44.30;13.77;;;;;;;5.73;79.02;100751.88;5051066;28;20376;-71
2021/04/26 03:40:17;;;;;;;57.30;13.73;;;;;;;5.87;79.07;100768.09;5051180;28;20037;-71
2021/04/26 03:42:43;;;;;;;61.17;13.82;;;;;;;4.75;78.96;100576.13;5053962;28;20025;-71
2021/04/26 03:45:09;;;;;;;36.63;12.00;;;;;;;5.89;78.64;100771.59;5054763;28;20025;-70
2021/04/26 03:47:34;;;;;;;78.80;14.30;;;;;;;5.80;79.51;100777.06;5053973;28;20479;-71
2021/04/26 03:49:59;;;;;;;48.80;14.80;;;;;;;5.84;79.07;100778.13;5054275;28;20021;-71
2021/04/26 03:52:25;;;;;;;65.20;15.73;;;;;;;5.89;78.85;100765.63;5054325;28;20394;-70
2021/04/26 03:54:50;;;;;;;62.60;13.63;;;;;;;5.67;78.65;100731.03;5054379;28;20496;-71
2021/04/26 03:57:16;;;;;;;40.10;13.43;;;;;;;5.99;78.59;100789.38;5054166;28;20468;-71
2021/04/26 03:59:41;;;;;;;28.10;12.63;;;;;;;5.74;78.09;100755.31;5054052;28;20147;-71
2021/04/26 04:02:07;;;;;;;33.17;12.55;;;;;;;5.67;78.38;100724.22;5054057;28;20029;-75
2021/04/26 04:04:32;;;;;;;28.10;12.32;;;;;;;5.91;78.42;100775.16;5053725;28;20029;-71
2021/04/26 04:06:59;;;;;;;81.72;15.43;;;;;;;6.07;78.47;100787.25;5054408;28;20025;-71
2021/04/26 04:09:24;;;;;;;76.45;15.13;;;;;;;5.69;78.37;100737.09;5053493;28;20478;-70
2021/04/26 04:11:50;;;;;;;61.63;13.50;;;;;;;5.48;80.63;100809.28;5053611;28;20056;-72
2021/04/26 04:14:15;;;;;;;22.75;12.52;;;;;;;5.60;80.41;100786.09;5053961;28;20021;-72
2021/04/26 04:16:41;;;;;;;62.00;12.43;;;;;;;5.64;80.15;100813.66;5053688;28;20098;-72
2021/04/26 04:19:06;;;;;;;35.28;11.57;;;;;;;5.49;81.53;100810.16;5053716;28;20174;-71
2021/04/26 04:21:32;;;;;;;51.28;11.93;;;;;;;5.63;81.15;100808.44;5053525;28;20029;-71
2021/04/26 04:23:57;;;;;;;30.20;12.30;;;;;;;5.63;81.12;100819.59;5059080;28;20024;-71
2021/04/26 04:26:23;;;;;;;33.50;13.07;;;;;;;5.59;81.68;100809.91;5053130;28;20033;-71
2021/04/26 04:28:48;;;;;;;34.03;13.18;;;;;;;5.55;81.56;100790.03;5053207;28;20041;-71
2021/04/26 04:31:14;;;;;;;28.95;13.55;;;;;;;5.61;81.11;100805.78;5053165;28;20029;-71
2021/04/26 04:33:39;;;;;;;37.40;13.73;;;;;;;5.71;81.26;100817.50;5054219;28;20077;-72
2021/04/26 04:36:05;;;;;;;44.13;13.98;;;;;;;6.01;81.58;100835.59;5067891;28;20040;-70
2021/04/26 04:38:31;;;;;;;28.73;14.18;;;;;;;6.06;80.93;100802.56;5056480;28;20086;-72
2021/04/26 04:40:57;;;;;;;50.97;13.82;;;;;;;6.22;80.49;100802.69;5052735;28;20539;-71
2021/04/26 04:43:24;;;;;;;36.78;12.05;;;;;;;6.12;80.06;100806.38;5068537;28;20438;-71
2021/04/26 04:45:49;;;;;;;62.33;14.70;;;;;;;5.99;81.65;100799.63;5052864;28;20044;-70
2021/04/26 04:48:15;;;;;;;114.32;14.63;;;;;;;6.16;81.95;100815.13;5053145;28;20033;-71
2021/04/26 04:50:41;;;;;;;45.40;12.88;;;;;;;6.28;82.12;100817.53;5052716;28;20028;-70
2021/04/26 04:53:06;;;;;;;62.30;14.32;;;;;;;6.34;82.37;100823.03;5054061;28;20033;-71
2021/04/26 04:55:32;;;;;;;44.85;17.48;;;;;;;6.25;82.96;100766.94;5051780;28;20067;-73
2021/04/26 04:57:57;;;;;;;33.20;15.82;;;;;;;6.77;82.65;100822.09;5059554;28;20484;-73
2021/04/26 05:00:23;;;;;;;55.33;14.27;;;;;;;6.54;81.92;100749.84;5053940;28;20052;-73
2021/04/26 05:02:48;;;;;;;46.78;14.18;;;;;;;6.71;81.80;100799.53;5003928;28;20090;-72
2021/04/26 05:05:14;;;;;;;68.05;14.98;;;;;;;6.30;84.41;100792.88;5052077;28;20037;-74
2021/04/26 05:07:39;;;;;;;37.60;14.93;;;;;;;6.59;85.22;100815.13;5052327;28;20166;-74
2021/04/26 05:10:06;;;;;;;44.75;15.00;;;;;;;6.85;84.60;100812.28;5047040;28;20025;-75
2021/04/26 05:12:31;;;;;;;32.83;14.20;;;;;;;7.02;83.92;100815.81;5032523;28;20060;-72
2021/04/26 05:14:57;;;;;;;50.97;13.73;;;;;;;7.05;83.70;100790.31;5056237;28;20028;-73
2021/04/26 05:17:23;;;;;;;54.42;13.65;;;;;;;7.34;83.16;100812.50;5052186;28;20433;-76
2021/04/26 05:19:48;;;;;;;73.25;14.82;;;;;;;7.13;83.30;100807.03;5051263;28;20021;-72
2021/04/26 05:22:14;;;;;;;58.40;14.57;;;;;;;7.29;82.52;100806.22;5056638;28;20068;-73
2021/04/26 05:24:40;;;;;;;48.67;13.68;;;;;;;6.99;82.95;100739.53;5051996;28;20548;-73
2021/04/26 05:27:06;;;;;;;37.60;16.83;;;;;;;7.43;82.96;100804.41;5052540;28;20061;-73
2021/04/26 05:29:32;;;;;;;40.83;14.32;;;;;;;6.79;82.38;100676.78;5052130;28;20071;-73
2021/04/26 05:31:57;;;;;;;34.35;14.73;;;;;;;7.10;82.59;100751.28;5052210;28;20096;-73
2021/04/26 05:34:24;;;;;;;45.10;15.43;;;;;;;7.47;83.30;100811.47;5052542;28;20033;-73
2021/04/26 05:36:49;;;;;;;32.75;14.75;;;;;;;7.49;83.32;100815.03;5052122;28;20029;-73
2021/04/26 05:39:15;;;;;;;28.27;14.90;;;;;;;7.34;83.92;100798.75;5051677;28;20086;-73
2021/04/26 05:41:40;;;;;;;26.92;16.33;;;;;;;7.50;84.38;100828.75;5051928;28;20641;-73
2021/04/26 05:44:06;;;;;;;21.50;13.10;;;;;;;7.23;85.14;100809.31;5052181;28;20159;-73
2021/04/26 05:46:31;;;;;;;18.30;12.90;;;;;;;7.49;83.43;100827.88;5051866;28;20479;-73
2021/04/26 05:48:57;;;;;;;20.77;13.52;;;;;;;7.47;83.65;100814.03;5052197;28;20025;-73
2021/04/26 05:51:23;;;;;;;19.52;13.65;;;;;;;7.56;83.45;100808.53;5052374;28;20115;-73
2021/04/26 05:53:48;;;;;;;22.17;14.73;;;;;;;7.53;84.20;100809.25;5066392;28;20045;-73
2021/04/26 05:56:14;;;;;;;20.33;13.82;;;;;;;7.63;84.25;100830.28;5051687;28;20036;-73
2021/04/26 05:58:39;;;;;;;20.65;14.15;;;;;;;7.47;84.71;100805.47;5032967;28;20087;-73
2021/04/26 06:01:05;;;;;;;24.52;15.00;;;;;;;7.38;86.23;100814.41;5051402;28;20024;-73
2021/04/26 06:03:30;;;;;;;26.65;16.42;;;;;;;7.27;86.19;100751.31;5050010;28;20039;-73
2021/04/26 06:05:59;;;;;;;22.38;15.75;;;;;;;7.91;85.66;100820.72;5051403;28;20025;-72
2021/04/26 06:08:25;;;;;;;23.95;16.00;;;;;;;7.71;84.98;100811.03;5051544;28;20036;-73
2021/04/26 06:10:51;;;;;;;23.17;16.00;;;;;;;7.86;85.72;100834.13;5051794;28;20403;-73
2021/04/26 06:13:17;;;;;;;24.77;15.90;;;;;;;7.78;86.69;100818.28;5051458;28;20479;-73
2021/04/26 06:15:42;;;;;;;23.80;16.08;;;;;;;7.97;86.52;100830.44;5051689;28;20487;-73
2021/04/26 06:18:20;;;;;;;25.80;16.10;;;;;;;8.13;86.40;100826.97;5051708;28;20036;-73
2021/04/26 06:20:47;;;;;;;26.45;15.55;;;;;;;8.24;86.35;100814.69;5032996;28;20041;-73
2021/04/26 06:23:13;;;;;;;23.75;15.90;;;;;;;8.51;86.11;100846.13;5050980;28;20556;-73
2021/04/26 06:25:40;;;;;;;27.20;17.25;;;;;;;8.39;85.96;100851.50;5051452;28;20029;-73
2021/04/26 06:28:07;;;;;;;26.98;17.00;;;;;;;8.51;86.56;100851.28;5051499;28;20049;-71
2021/04/26 06:30:33;;;;;;;28.10;17.60;;;;;;;8.58;86.18;100865.34;5051268;28;20036;-73
2021/04/26 06:32:59;;;;;;;26.92;15.55;;;;;;;7.97;85.58;100753.28;5051412;28;20025;-73
2021/04/26 06:35:25;;;;;;;23.92;15.95;;;;;;;8.79;86.62;100860.41;5051070;28;20115;-73
2021/04/26 06:37:51;;;;;;;26.10;16.15;;;;;;;8.52;85.40;100785.25;5051356;28;20029;-73
2021/04/26 06:40:16;;;;;;;24.10;17.10;;;;;;;9.04;84.79;100859.06;5051271;28;20489;-73
2021/04/26 06:42:43;;;;;;;27.38;17.50;;;;;;;8.76;85.22;100810.44;5051182;28;20036;-73
2021/04/26 06:45:10;;;;;;;27.00;17.63;;;;;;;9.22;85.72;100865.13;5051529;28;20056;-73
2021/04/26 06:47:36;;;;;;;24.13;16.08;;;;;;;9.32;83.92;100862.97;5050847;28;20053;-73
2021/04/26 06:50:03;;;;;;;23.15;16.85;;;;;;;9.43;84.66;100853.19;5050843;28;20467;-74
2021/04/26 06:56:18;;;;;;;31.92;18.23;;;;;;;9.77;84.47;100847.03;5078077;27;20399;-71
2021/04/26 06:58:44;;;;;;;23.02;15.75;;;;;;;9.96;82.95;100841.91;5068410;28;20044;-72
2021/04/26 07:01:10;;;;;;;20.17;14.25;;;;;;;9.98;82.58;100836.81;5060221;28;20059;-72
2021/04/26 07:22:22;;;;;;;18.67;13.73;;;;;;;10.63;80.54;100808.69;5082097;27;20392;-72
2021/04/26 07:24:48;;;;;;;17.75;11.90;;;;;;;10.61;77.49;100777.63;5070564;28;20044;-72
2021/04/26 07:44:34;;;;;;;16.55;11.23;;;;;;;12.06;70.94;100807.38;5068545;28;20047;-72
2021/04/26 07:47:00;;;;;;;17.35;10.57;;;;;;;12.34;71.49;100814.44;5068396;28;20409;-72
2021/04/26 07:49:26;;;;;;;13.55;10.52;;;;;;;12.45;70.32;100820.00;5068473;28;20032;-72
2021/04/26 07:51:52;;;;;;;14.50;11.23;;;;;;;12.32;69.01;100795.38;5068471;28;20067;-73
2021/04/26 07:54:18;;;;;;;14.35;9.93;;;;;;;12.64;67.48;100812.88;5068448;28;20036;-72
2021/04/26 07:56:43;;;;;;;19.13;12.27;;;;;;;12.86;68.53;100822.22;5068649;28;20028;-72
2021/04/26 07:59:09;;;;;;;141.27;85.03;;;;;;;12.67;69.38;100806.03;5068301;28;20154;-72
2021/04/26 08:01:35;;;;;;;17.45;12.48;;;;;;;12.84;68.19;100800.56;5068461;28;20129;-72
2021/04/26 08:04:00;;;;;;;17.05;11.85;;;;;;;13.05;67.60;100796.06;5067062;28;20029;-72
2021/04/26 08:06:26;;;;;;;18.48;12.85;;;;;;;13.04;68.99;100783.94;5067901;28;20483;-72
2021/04/26 08:08:51;;;;;;;15.70;11.40;;;;;;;13.02;68.59;100787.31;5068378;28;20036;-72
2021/04/26 08:11:17;;;;;;;18.17;11.93;;;;;;;13.21;65.83;100773.25;5068041;28;20417;-72
2021/04/26 08:13:42;;;;;;;17.70;11.18;;;;;;;13.53;66.08;100776.84;5068074;28;20024;-72
2021/04/26 08:16:08;;;;;;;14.25;9.90;;;;;;;13.66;61.79;100770.28;5066688;28;20029;-72
2021/04/26 08:18:34;;;;;;;13.90;9.13;;;;;;;13.74;60.10;100765.31;5068241;28;20224;-72
2021/04/26 08:21:00;;;;;;;17.52;9.02;;;;;;;13.89;59.04;100781.34;5067739;28;20052;-72
2021/04/26 08:23:26;;;;;;;11.98;7.35;;;;;;;13.87;56.98;100774.34;5068176;28;20035;-72
2021/04/26 08:25:51;;;;;;;13.18;7.00;;;;;;;13.85;56.50;100739.69;5067852;28;20111;-72
2021/04/26 08:28:19;;;;;;;12.63;7.40;;;;;;;13.88;57.35;100771.78;5067631;28;20405;-72
2021/04/26 08:30:48;;;;;;;13.77;7.75;;;;;;;13.99;56.70;100769.47;5067643;28;20035;-73
2021/04/26 08:33:13;;;;;;;11.43;8.02;;;;;;;13.92;56.55;100757.19;5056504;28;20025;-73
2021/04/26 08:35:39;;;;;;;11.18;8.27;;;;;;;13.96;56.60;100743.44;5054104;28;20021;-73
2021/04/26 08:38:04;;;;;;;10.25;6.97;;;;;;;14.23;54.95;100753.69;5054737;28;20032;-73
2021/04/26 08:40:30;;;;;;;11.32;6.53;;;;;;;14.20;53.15;100750.16;5053085;28;20540;-73
2021/04/26 08:43:02;;;;;;;12.27;8.43;;;;;;;14.33;55.61;100759.13;5054400;28;20108;-73
2021/04/26 08:45:27;;;;;;;12.07;8.60;;;;;;;14.43;54.12;100760.25;5054180;28;20379;-73
2021/04/26 08:47:53;;;;;;;15.18;8.77;;;;;;;14.63;54.27;100758.16;5051803;28;20041;-73
2021/04/26 08:50:20;;;;;;;11.73;8.20;;;;;;;14.81;53.42;100757.78;5051561;28;20033;-73
2021/04/26 08:52:45;;;;;;;16.35;9.82;;;;;;;15.08;52.71;100749.75;5051709;28;20056;-73
2021/04/26 08:55:12;;;;;;;11.07;9.05;;;;;;;15.24;51.50;100753.59;5051783;28;20020;-73
2021/04/26 08:57:37;;;;;;;13.38;8.88;;;;;;;15.30;52.31;100743.31;5051632;28;20036;-73
2021/04/26 09:00:06;;;;;;;13.13;10.02;;;;;;;15.25;52.50;100741.44;5051559;28;20025;-73
2021/04/26 09:02:43;;;;;;;15.38;11.20;;;;;;;15.50;52.33;100733.34;5067805;28;20124;-74
2021/04/26 09:05:19;;;;;;;14.02;10.52;;;;;;;15.55;52.34;100717.78;5051592;28;20029;-73
2021/04/26 09:07:49;;;;;;;16.65;9.88;;;;;;;15.71;51.13;100721.59;5051482;28;20037;-73
2021/04/26 09:10:15;;;;;;;17.40;11.57;;;;;;;15.83;51.82;100723.59;5063132;28;20041;-74
2021/04/26 09:12:40;;;;;;;14.45;10.95;;;;;;;15.98;51.13;100730.81;5063471;28;20541;-74
2021/04/26 09:15:06;;;;;;;18.20;12.23;;;;;;;15.97;51.43;100718.66;5050163;28;20409;-73
2021/04/26 09:17:39;;;;;;;17.02;11.85;;;;;;;15.78;52.19;100712.19;5050306;28;20460;-73
2021/04/26 09:20:14;;;;;;;16.65;11.75;;;;;;;16.19;51.49;100719.94;5049947;28;20041;-74
2021/04/26 09:22:50;;;;;;;13.48;10.30;;;;;;;16.36;51.76;100714.13;5052609;28;20051;-74
2021/04/26 09:25:35;;;;;;;18.08;11.57;;;;;;;16.41;50.40;100708.16;5053064;28;20041;-74
2021/04/26 09:28:07;;;;;;;16.00;10.60;;;;;;;16.55;48.81;100717.91;5052742;28;20040;-74
2021/04/26 09:30:39;;;;;;;13.93;10.55;;;;;;;16.68;48.53;100704.22;5052848;28;20060;-73
2021/04/26 09:33:26;;;;;;;12.00;9.63;;;;;;;16.72;47.06;100706.03;5052785;28;20025;-74
2021/04/26 09:38:43;;;;;;;13.77;8.75;;;;;;;16.80;45.32;100694.00;5053107;28;20095;-74
2021/04/26 09:41:21;;;;;;;11.97;8.60;;;;;;;16.94;45.19;100694.22;5050291;28;20040;-74
2021/04/26 09:44:09;;;;;;;12.68;8.75;;;;;;;17.04;45.48;100694.38;5051567;28;20675;-73
2021/04/26 09:46:49;;;;;;;11.60;7.72;;;;;;;17.17;44.56;100688.47;5031414;28;20060;-75
2021/04/26 09:49:17;;;;;;;11.90;8.25;;;;;;;17.16;44.93;100667.56;5041426;28;20057;-70
2021/04/26 09:51:48;;;;;;;11.35;7.97;;;;;;;17.39;45.42;100683.53;5046896;28;20021;-71
2021/04/26 09:54:14;;;;;;;12.98;8.32;;;;;;;17.28;43.91;100689.47;5044190;28;20048;-73
2021/04/26 09:56:41;;;;;;;23.05;8.45;;;;;;;17.40;44.83;100675.69;5049732;28;20016;-70
2021/04/26 09:59:08;;;;;;;13.68;7.35;;;;;;;17.40;43.62;100672.22;5051377;28;20041;-70
2021/04/26 10:01:35;;;;;;;11.20;6.40;;;;;;;17.08;43.66;100665.72;5050847;28;20036;-71
2021/04/26 10:04:03;;;;;;;13.73;6.85;;;;;;;17.49;44.76;100661.03;5051426;28;20021;-72
2021/04/26 10:06:28;;;;;;;12.35;7.30;;;;;;;17.70;43.23;100658.63;5051498;28;20029;-72
2021/04/26 10:08:57;;;;;;;10.00;6.18;;;;;;;18.00;43.79;100679.88;5051175;28;20375;-73
2021/04/26 10:11:24;;;;;;;11.70;6.18;;;;;;;18.18;43.16;100666.97;5051248;28;20021;-73
2021/04/26 10:13:58;;;;;;;11.73;6.30;;;;;;;18.15;42.17;100672.16;5025595;28;20550;-73
2021/04/26 10:16:33;;;;;;;10.48;5.65;;;;;;;18.22;42.73;100671.38;5025261;28;20049;-72
2021/04/26 10:18:59;;;;;;;11.20;6.20;;;;;;;18.39;41.64;100634.03;5026123;28;20037;-72
2021/04/26 10:21:25;;;;;;;11.73;5.93;;;;;;;18.83;41.54;100671.78;5029061;28;20430;-69
2021/04/26 10:23:53;;;;;;;12.57;7.10;;;;;;;18.84;39.71;100639.53;5032984;28;20044;-69
2021/04/26 10:26:47;;;;;;;13.88;5.30;;;;;;;19.20;39.78;100659.84;5029630;28;20069;-71
2021/04/26 10:29:34;;;;;;;10.25;5.00;;;;;;;19.12;39.81;100650.22;5029486;28;20026;-71
2021/04/26 10:31:59;;;;;;;14.32;5.50;;;;;;;19.35;39.70;100652.91;5027745;28;20041;-71
2021/04/26 10:34:30;;;;;;;10.50;5.05;;;;;;;19.32;38.32;100658.13;5026034;28;20594;-72
2021/04/26 10:36:59;;;;;;;14.77;5.43;;;;;;;19.38;38.73;100643.31;5028212;28;20025;-69
2021/04/26 10:39:26;;;;;;;9.55;4.95;;;;;;;19.60;39.70;100638.16;5023494;28;20041;-71
2021/04/26 10:41:58;;;;;;;10.88;4.65;;;;;;;19.77;38.65;100634.69;5026329;28;20026;-71
2021/04/26 10:44:39;;;;;;;9.88;5.10;;;;;;;19.75;37.38;100642.56;5026038;28;20048;-69
2021/04/26 10:47:16;;;;;;;9.55;5.43;;;;;;;19.62;36.51;100643.41;5025855;28;20115;-70
2021/04/26 10:49:45;;;;;;;8.68;4.70;;;;;;;19.84;36.23;100642.59;5024000;28;20069;-74
2021/04/26 10:52:26;;;;;;;7.47;4.53;;;;;;;19.83;33.96;100645.22;5056584;28;20037;-73
2021/04/26 10:54:53;;;;;;;9.82;4.53;;;;;;;19.86;34.38;100638.25;5049294;28;20104;-71
2021/04/26 10:57:48;;;;;;;8.27;4.45;;;;;;;19.92;36.16;100631.25;5049397;28;20511;-70
2021/04/26 11:00:26;;;;;;;8.65;4.65;;;;;;;19.72;34.66;100601.50;5050072;28;20033;-71
2021/04/26 11:03:07;;;;;;;11.75;6.15;;;;;;;19.97;35.92;100632.13;5050077;28;20090;-70
2021/04/26 11:05:36;;;;;;;8.10;4.70;;;;;;;20.26;32.64;100628.63;5049584;28;20040;-69
2021/04/26 11:08:15;;;;;;;6.18;4.18;;;;;;;20.40;33.48;100621.66;5049509;28;20032;-71
2021/04/26 11:10:49;;;;;;;8.30;4.43;;;;;;;20.37;35.31;100616.38;5045316;28;20045;-71
2021/04/26 11:13:33;;;;;;;8.32;4.20;;;;;;;20.48;35.33;100619.88;5045415;28;20033;-72
2021/04/26 11:16:22;;;;;;;5.55;3.40;;;;;;;20.66;33.03;100612.84;5047079;28;20060;-71
2021/04/26 11:18:54;;;;;;;8.65;4.07;;;;;;;20.33;33.40;100615.50;5049144;28;20021;-71
2021/04/26 11:21:43;;;;;;;5.07;3.45;;;;;;;20.43;30.73;100605.88;5045336;28;20056;-71
2021/04/26 11:24:09;;;;;;;6.03;3.45;;;;;;;20.26;29.71;100602.41;5027621;28;20554;-71
2021/04/26 11:26:35;;;;;;;5.82;3.50;;;;;;;19.86;29.90;100529.94;5044425;28;20045;-72
2021/04/26 11:29:11;;;;;;;7.65;3.50;;;;;;;20.76;31.03;100604.13;5026875;28;20033;-71
2021/04/26 11:31:43;;;;;;;5.70;3.53;;;;;;;20.87;31.24;100590.09;5011187;28;20033;-71
2021/04/26 11:34:18;;;;;;;6.97;3.50;;;;;;;20.95;27.98;100596.19;5027860;28;20053;-71
2021/04/26 11:37:02;;;;;;;7.30;3.28;;;;;;;20.91;29.72;100592.69;5026375;28;20491;-71
2021/04/26 11:39:29;;;;;;;6.20;3.80;;;;;;;20.96;29.87;100596.16;5025756;28;20513;-70
2021/04/26 11:41:54;;;;;;;6.80;3.72;;;;;;;20.92;29.35;100591.81;5026203;28;20128;-71
2021/04/26 11:44:40;;;;;;;5.85;3.85;;;;;;;20.94;29.97;100592.66;5025880;28;20114;-72
2021/04/26 11:47:10;;;;;;;5.80;3.60;;;;;;;21.26;30.27;100589.03;5027606;28;20084;-72
2021/04/26 11:49:43;;;;;;;5.88;3.92;;;;;;;21.43;27.30;100582.81;5027735;28;20025;-71
2021/04/26 11:52:15;;;;;;;9.90;3.97;;;;;;;21.73;27.74;100571.28;5027545;28;20404;-72
2021/04/26 11:54:43;;;;;;;5.63;3.75;;;;;;;21.73;27.72;100573.91;5026329;28;20041;-71
2021/04/26 11:57:19;;;;;;;6.60;3.92;;;;;;;21.24;29.38;100548.78;5028334;28;20036;-71
2021/04/26 11:59:56;;;;;;;7.28;3.70;;;;;;;21.53;27.13;100573.13;5028004;28;20674;-71
2021/04/26 12:02:30;;;;;;;6.95;3.70;;;;;;;21.73;27.84;100555.50;5049161;28;20045;-71
2021/04/26 12:05:00;;;;;;;7.05;3.80;;;;;;;21.82;27.75;100559.81;5049776;28;20040;-71